sensor_id;sensor_type;location;lat;lon;timestamp;pressure;altitude;pressure_sealevel;temperature;humidity
38038;BME280;23843;51.320;12.340;2022-12-29T05:30:49;99449.44;;;9.74;100.00
38038;BME280;23843;51.320;12.340;2022-12-29T05:33:14;99460.88;;;9.74;100.00
38038;BME280;23843;51.320;12.340;2022-12-29T05:35:40;99471.66;;;9.71;100.00
38038;BME280;23843;51.320;12.340;2022-12-29T05:38:05;99463.72;;;9.71;100.00
38038;BME280;23843;51.320;12.340;2022-12-29T05:40:31;99461.06;;;9.71;100.00
38038;BME280;23843;51.320;12.340;2022-12-29T05:42:56;99451.53;;;9.69;100.00
38038;BME280;23843;51.320;12.340;2022-12-29T05:45:21;99464.84;;;9.67;100.00
38038;BME280;23843;51.320;12.340;2022-12-29T05:47:48;99457.66;;;9.69;100.00
38038;BME280;23843;51.320;12.340;2022-12-29T05:50:14;99458.97;;;9.76;100.00
38038;BME280;23843;51.320;12.340;2022-12-29T05:52:39;99456.13;;;9.79;100.00
38038;BME280;23843;51.320;12.340;2022-12-29T05:55:06;99461.97;;;9.84;100.00
38038;BME280;23843;51.320;12.340;2022-12-29T05:57:31;99455.81;;;9.84;100.00
38038;BME280;23843;51.320;12.340;2022-12-29T05:59:57;99461.78;;;9.88;100.00
38038;BME280;23843;51.320;12.340;2022-12-29T06:02:22;99452.66;;;9.92;100.00
38038;BME280;23843;51.320;12.340;2022-12-29T06:04:49;99445.50;;;9.94;100.00
38038;BME280;23843;51.320;12.340;2022-12-29T06:07:14;99445.69;;;9.91;100.00
38038;BME280;23843;51.320;12.340;2022-12-29T06:09:40;99455.22;;;9.93;100.00
38038;BME280;23843;51.320;12.340;2022-12-29T06:12:06;99454.19;;;9.96;100.00
38038;BME280;23843;51.320;12.340;2022-12-29T06:14:31;99454.19;;;9.96;100.00
38038;BME280;23843;51.320;12.340;2022-12-29T06:16:56;99458.31;;;10.00;100.00
38038;BME280;23843;51.320;12.340;2022-12-29T06:19:22;99459.03;;;10.02;100.00
38038;BME280;23843;51.320;12.340;2022-12-29T06:21:49;99451.03;;;10.03;100.00
38038;BME280;23843;51.320;12.340;2022-12-29T06:24:14;99455.25;;;10.06;100.00
38038;BME280;23843;51.320;12.340;2022-12-29T06:26:39;99447.31;;;10.06;100.00
38038;BME280;23843;51.320;12.340;2022-12-29T06:29:05;99454.28;;;10.07;100.00
38038;BME280;23843;51.320;12.340;2022-12-29T06:31:30;99455.91;;;10.10;100.00
38038;BME280;23843;51.320;12.340;2022-12-29T06:33:56;99466.50;;;10.10;100.00
38038;BME280;23843;51.320;12.340;2022-12-29T06:36:21;99463.28;;;10.04;100.00
38038;BME280;23843;51.320;12.340;2022-12-29T06:38:48;99460.09;;;9.99;100.00
38038;BME280;23843;51.320;12.340;2022-12-29T06:41:13;99460.97;;;10.00;100.00
38038;BME280;23843;51.320;12.340;2022-12-29T06:43:39;99452.38;;;9.96;100.00
38038;BME280;23843;51.320;12.340;2022-12-29T06:46:04;99441.53;;;9.86;100.00
38038;BME280;23843;51.320;12.340;2022-12-29T06:48:30;99438.56;;;9.78;100.00
38038;BME280;23843;51.320;12.340;2022-12-29T06:50:56;99437.31;;;9.84;100.00
38038;BME280;23843;51.320;12.340;2022-12-29T06:53:21;99439.63;;;9.76;100.00
38038;BME280;23843;51.320;12.340;2022-12-29T06:55:48;99442.56;;;9.71;100.00
38038;BME280;23843;51.320;12.340;2022-12-29T06:58:13;99444.38;;;9.71;100.00
38038;BME280;23843;51.320;12.340;2022-12-29T07:00:39;99447.09;;;9.69;100.00
38038;BME280;23843;51.320;12.340;2022-12-29T07:03:04;99438.63;;;9.64;100.00
38038;BME280;23843;51.320;12.340;2022-12-29T07:05:30;99434.38;;;9.61;100.00
38038;BME280;23843;51.320;12.340;2022-12-29T07:07:55;99440.59;;;9.60;100.00
38038;BME280;23843;51.320;12.340;2022-12-29T07:10:21;99454.09;;;9.56;100.00
38038;BME280;23843;51.320;12.340;2022-12-29T07:12:48;99444.41;;;9.56;100.00
38038;BME280;23843;51.320;12.340;2022-12-29T07:15:13;99455.06;;;9.55;100.00
38038;BME280;23843;51.320;12.340;2022-12-29T07:17:39;99453.38;;;9.54;100.00
38038;BME280;23843;51.320;12.340;2022-12-29T07:20:06;99459.59;;;9.53;100.00
38038;BME280;23843;51.320;12.340;2022-12-29T07:22:31;99445.25;;;9.57;100.00
38038;BME280;23843;51.320;12.340;2022-12-29T07:24:57;99448.34;;;9.63;100.00
38038;BME280;23843;51.320;12.340;2022-12-29T07:27:22;99450.69;;;9.68;100.00
38038;BME280;23843;51.320;12.340;2022-12-29T07:29:49;99439.63;;;9.76;100.00
38038;BME280;23843;51.320;12.340;2022-12-29T07:32:15;99441.38;;;9.75;100.00
38038;BME280;23843;51.320;12.340;2022-12-29T07:34:40;99455.56;;;9.74;100.00
38038;BME280;23843;51.320;12.340;2022-12-29T07:37:06;99448.78;;;9.70;100.00
38038;BME280;23843;51.320;12.340;2022-12-29T07:39:31;99448.47;;;9.75;100.00
38038;BME280;23843;51.320;12.340;2022-12-29T07:41:57;99458.75;;;9.79;100.00
38038;BME280;23843;51.320;12.340;2022-12-29T07:44:22;99460.28;;;9.83;100.00
38038;BME280;23843;51.320;12.340;2022-12-29T07:46:52;99459.00;;;9.89;100.00
38038;BME280;23843;51.320;12.340;2022-12-29T07:49:17;99470.25;;;9.93;100.00
38038;BME280;23843;51.320;12.340;2022-12-29T07:51:43;99475.25;;;9.97;100.00
38038;BME280;23843;51.320;12.340;2022-12-29T07:54:08;99469.84;;;9.99;100.00
38038;BME280;23843;51.320;12.340;2022-12-29T07:56:34;99475.25;;;9.97;100.00
38038;BME280;23843;51.320;12.340;2022-12-29T07:58:59;99479.50;;;10.00;100.00
38038;BME280;23843;51.320;12.340;2022-12-29T08:01:25;99469.63;;;10.02;100.00
38038;BME280;23843;51.320;12.340;2022-12-29T08:03:52;99471.03;;;10.07;100.00
38038;BME280;23843;51.320;12.340;2022-12-29T08:06:17;99479.41;;;10.14;100.00
38038;BME280;23843;51.320;12.340;2022-12-29T08:08:42;99476.66;;;10.16;100.00
38038;BME280;23843;51.320;12.340;2022-12-29T08:11:08;99479.00;;;10.20;100.00
38038;BME280;23843;51.320;12.340;2022-12-29T08:13:34;99479.63;;;10.24;100.00
38038;BME280;23843;51.320;12.340;2022-12-29T08:15:59;99483.16;;;10.24;100.00
38038;BME280;23843;51.320;12.340;2022-12-29T08:18:24;99475.78;;;10.30;100.00
38038;BME280;23843;51.320;12.340;2022-12-29T08:20:51;99474.06;;;10.28;100.00
38038;BME280;23843;51.320;12.340;2022-12-29T08:23:17;99468.47;;;10.33;100.00
38038;BME280;23843;51.320;12.340;2022-12-29T08:25:42;99470.06;;;10.36;100.00
38038;BME280;23843;51.320;12.340;2022-12-29T08:28:08;99473.38;;;10.39;100.00
38038;BME280;23843;51.320;12.340;2022-12-29T08:30:33;99481.19;;;10.41;100.00
38038;BME280;23843;51.320;12.340;2022-12-29T08:32:59;99472.41;;;10.40;100.00
38038;BME280;23843;51.320;12.340;2022-12-29T08:35:24;99477.69;;;10.40;100.00
38038;BME280;23843;51.320;12.340;2022-12-29T08:37:51;99474.75;;;10.45;100.00
38038;BME280;23843;51.320;12.340;2022-12-29T08:40:16;99473.25;;;10.41;100.00
38038;BME280;23843;51.320;12.340;2022-12-29T08:42:42;99474.84;;;10.43;100.00
38038;BME280;23843;51.320;12.340;2022-12-29T08:45:09;99470.19;;;10.47;100.00
38038;BME280;23843;51.320;12.340;2022-12-29T08:47:34;99472.63;;;10.50;100.00
38038;BME280;23843;51.320;12.340;2022-12-29T08:50:03;99474.34;;;10.51;100.00
38038;BME280;23843;51.320;12.340;2022-12-29T08:52:28;99463.53;;;10.54;100.00
38038;BME280;23843;51.320;12.340;2022-12-29T08:54:55;99476.47;;;10.59;100.00
38038;BME280;23843;51.320;12.340;2022-12-29T08:57:20;99471.25;;;10.70;100.00
38038;BME280;23843;51.320;12.340;2022-12-29T08:59:46;99454.50;;;11.08;100.00
38038;BME280;23843;51.320;12.340;2022-12-29T09:02:11;99459.00;;;11.44;100.00
38038;BME280;23843;51.320;12.340;2022-12-29T09:04:37;99446.66;;;11.80;100.00
38038;BME280;23843;51.320;12.340;2022-12-29T09:07:02;99449.47;;;12.14;100.00
38038;BME280;23843;51.320;12.340;2022-12-29T09:09:28;99439.50;;;12.87;100.00
38038;BME280;23843;51.320;12.340;2022-12-29T09:11:55;99454.00;;;14.26;100.00
38038;BME280;23843;51.320;12.340;2022-12-29T09:14:20;99450.13;;;14.72;100.00
38038;BME280;23843;51.320;12.340;2022-12-29T09:16:45;99451.56;;;14.76;100.00
38038;BME280;23843;51.320;12.340;2022-12-29T09:19:11;99443.13;;;14.71;94.37
38038;BME280;23843;51.320;12.340;2022-12-29T09:21:36;99444.47;;;14.65;95.21
38038;BME280;23843;51.320;12.340;2022-12-29T09:24:02;99446.63;;;14.71;91.71
38038;BME280;23843;51.320;12.340;2022-12-29T09:26:27;99443.56;;;15.47;84.15
38038;BME280;23843;51.320;12.340;2022-12-29T09:28:54;99441.13;;;17.09;79.23
38038;BME280;23843;51.320;12.340;2022-12-29T09:31:20;99439.91;;;18.31;64.69
38038;BME280;23843;51.320;12.340;2022-12-29T09:33:48;99437.16;;;18.23;62.03
38038;BME280;23843;51.320;12.340;2022-12-29T09:36:13;99427.28;;;19.19;62.71
38038;BME280;23843;51.320;12.340;2022-12-29T09:38:39;99419.03;;;19.63;54.71
38038;BME280;23843;51.320;12.340;2022-12-29T09:41:10;99423.78;;;19.27;52.44
38038;BME280;23843;51.320;12.340;2022-12-29T09:44:01;99415.00;;;18.83;52.80
38038;BME280;23843;51.320;12.340;2022-12-29T09:46:31;99409.31;;;18.86;54.46
38038;BME280;23843;51.320;12.340;2022-12-29T09:49:08;99405.41;;;18.10;56.75
38038;BME280;23843;51.320;12.340;2022-12-29T09:51:38;99422.53;;;17.36;60.22
38038;BME280;23843;51.320;12.340;2022-12-29T09:54:28;99426.44;;;16.66;64.79
38038;BME280;23843;51.320;12.340;2022-12-29T09:56:58;99416.66;;;16.28;69.81
38038;BME280;23843;51.320;12.340;2022-12-29T09:59:37;99421.41;;;15.66;71.03
38038;BME280;23843;51.320;12.340;2022-12-29T10:02:14;99418.31;;;15.11;75.27
38038;BME280;23843;51.320;12.340;2022-12-29T10:04:43;99422.91;;;14.68;79.81
38038;BME280;23843;51.320;12.340;2022-12-29T10:07:13;99416.09;;;14.43;82.80
38038;BME280;23843;51.320;12.340;2022-12-29T10:09:53;99431.44;;;14.09;85.10
38038;BME280;23843;51.320;12.340;2022-12-29T10:12:27;99428.13;;;13.84;88.97
38038;BME280;23843;51.320;12.340;2022-12-29T10:15:03;99443.59;;;13.58;90.86
38038;BME280;23843;51.320;12.340;2022-12-29T10:17:36;99419.78;;;13.45;92.92
38038;BME280;23843;51.320;12.340;2022-12-29T10:20:18;99431.66;;;13.30;93.18
38038;BME280;23843;51.320;12.340;2022-12-29T10:25:37;99428.63;;;13.01;96.77
38038;BME280;23843;51.320;12.340;2022-12-29T10:28:07;99420.44;;;12.93;98.71
38038;BME280;23843;51.320;12.340;2022-12-29T10:30:43;99416.31;;;12.89;99.10
38038;BME280;23843;51.320;12.340;2022-12-29T10:33:13;99409.31;;;12.76;100.00
38038;BME280;23843;51.320;12.340;2022-12-29T10:35:41;99418.97;;;12.66;100.00
38038;BME280;23843;51.320;12.340;2022-12-29T10:38:12;99419.19;;;12.52;100.00
38038;BME280;23843;51.320;12.340;2022-12-29T10:40:43;99408.66;;;12.50;100.00
38038;BME280;23843;51.320;12.340;2022-12-29T10:43:19;99422.81;;;12.62;100.00
38038;BME280;23843;51.320;12.340;2022-12-29T10:45:48;99419.78;;;12.67;100.00
38038;BME280;23843;51.320;12.340;2022-12-29T10:48:20;99412.19;;;12.73;100.00
38038;BME280;23843;51.320;12.340;2022-12-29T10:50:47;99411.59;;;12.81;100.00
38038;BME280;23843;51.320;12.340;2022-12-29T10:53:19;99418.84;;;12.90;100.00
38038;BME280;23843;51.320;12.340;2022-12-29T10:55:46;99403.03;;;12.89;100.00
38038;BME280;23843;51.320;12.340;2022-12-29T10:58:13;99418.84;;;13.01;100.00
38038;BME280;23843;51.320;12.340;2022-12-29T11:00:39;99416.78;;;13.16;99.93
38038;BME280;23843;51.320;12.340;2022-12-29T11:03:26;99417.31;;;13.97;95.35
38038;BME280;23843;51.320;12.340;2022-12-29T11:06:04;99400.22;;;15.84;76.78
38038;BME280;23843;51.320;12.340;2022-12-29T11:08:36;99417.66;;;16.08;75.44
38038;BME280;23843;51.320;12.340;2022-12-29T11:11:05;99406.97;;;15.78;75.62
38038;BME280;23843;51.320;12.340;2022-12-29T11:13:33;99405.09;;;15.59;77.02
38038;BME280;23843;51.320;12.340;2022-12-29T11:15:59;99406.97;;;15.28;78.29
38038;BME280;23843;51.320;12.340;2022-12-29T11:18:32;99410.38;;;14.99;80.37
38038;BME280;23843;51.320;12.340;2022-12-29T11:21:00;99401.06;;;14.84;82.11
38038;BME280;23843;51.320;12.340;2022-12-29T11:23:30;99401.06;;;14.84;83.83
38038;BME280;23843;51.320;12.340;2022-12-29T11:26:15;99397.88;;;14.90;85.36
38038;BME280;23843;51.320;12.340;2022-12-29T11:28:43;99396.09;;;15.01;85.44
38038;BME280;23843;51.320;12.340;2022-12-29T11:31:09;99398.59;;;14.92;83.39
38038;BME280;23843;51.320;12.340;2022-12-29T11:33:37;99397.97;;;14.79;83.89
38038;BME280;23843;51.320;12.340;2022-12-29T11:36:06;99382.50;;;14.73;87.03
38038;BME280;23843;51.320;12.340;2022-12-29T11:38:37;99387.81;;;14.63;86.68
38038;BME280;23843;51.320;12.340;2022-12-29T11:41:05;99387.81;;;14.63;90.00
38038;BME280;23843;51.320;12.340;2022-12-29T11:43:38;99395.31;;;14.58;89.50
38038;BME280;23843;51.320;12.340;2022-12-29T11:46:06;99400.84;;;14.45;87.95
38038;BME280;23843;51.320;12.340;2022-12-29T11:48:37;99407.22;;;14.33;89.87
38038;BME280;23843;51.320;12.340;2022-12-29T11:51:06;99401.81;;;14.23;91.00
38038;BME280;23843;51.320;12.340;2022-12-29T11:53:36;99400.84;;;14.03;89.99
38038;BME280;23843;51.320;12.340;2022-12-29T11:56:07;99408.94;;;14.02;93.66
38038;BME280;23843;51.320;12.340;2022-12-29T11:58:35;99398.44;;;14.00;93.50
38038;BME280;23843;51.320;12.340;2022-12-29T12:01:03;99389.72;;;13.98;94.31
38038;BME280;23843;51.320;12.340;2022-12-29T12:03:32;99405.59;;;14.00;95.90
38038;BME280;23843;51.320;12.340;2022-12-29T12:06:01;99414.91;;;13.94;95.05
38038;BME280;23843;51.320;12.340;2022-12-29T12:08:34;99405.97;;;13.95;95.46
38038;BME280;23843;51.320;12.340;2022-12-29T12:11:09;99408.81;;;14.03;97.79
38038;BME280;23843;51.320;12.340;2022-12-29T12:13:40;99403.94;;;14.08;94.38
38038;BME280;23843;51.320;12.340;2022-12-29T12:16:12;99400.72;;;14.05;94.97
38038;BME280;23843;51.320;12.340;2022-12-29T12:18:41;99407.84;;;14.04;95.96
38038;BME280;23843;51.320;12.340;2022-12-29T12:21:16;99400.38;;;13.98;94.47
38038;BME280;23843;51.320;12.340;2022-12-29T12:23:56;99404.97;;;13.96;96.10
38038;BME280;23843;51.320;12.340;2022-12-29T12:26:30;99406.09;;;13.94;96.90
38038;BME280;23843;51.320;12.340;2022-12-29T12:28:59;99405.50;;;13.90;96.90
38038;BME280;23843;51.320;12.340;2022-12-29T12:31:35;99409.88;;;13.80;95.24
38038;BME280;23843;51.320;12.340;2022-12-29T12:34:08;99398.03;;;13.73;96.19
38038;BME280;23843;51.320;12.340;2022-12-29T12:36:51;99401.56;;;13.73;97.83
38038;BME280;23843;51.320;12.340;2022-12-29T12:39:26;99391.31;;;13.68;98.46
38038;BME280;23843;51.320;12.340;2022-12-29T12:41:59;99392.06;;;13.59;98.23
38038;BME280;23843;51.320;12.340;2022-12-29T12:44:39;99398.00;;;13.52;99.60
38038;BME280;23843;51.320;12.340;2022-12-29T12:47:21;99394.75;;;13.48;99.26
38038;BME280;23843;51.320;12.340;2022-12-29T12:50:10;99389.56;;;13.46;98.95
38038;BME280;23843;51.320;12.340;2022-12-29T12:52:49;99391.13;;;13.38;98.76
38038;BME280;23843;51.320;12.340;2022-12-29T12:55:34;99403.00;;;13.34;99.08
38038;BME280;23843;51.320;12.340;2022-12-29T12:58:05;99400.84;;;13.27;98.77
38038;BME280;23843;51.320;12.340;2022-12-29T13:00:42;99409.03;;;13.24;100.00
38038;BME280;23843;51.320;12.340;2022-12-29T13:03:15;99409.03;;;13.24;100.00
38038;BME280;23843;51.320;12.340;2022-12-29T13:05:54;99410.25;;;13.20;100.00
38038;BME280;23843;51.320;12.340;2022-12-29T13:08:43;99411.91;;;13.21;100.00
38038;BME280;23843;51.320;12.340;2022-12-29T13:11:18;99413.16;;;13.17;100.00
38038;BME280;23843;51.320;12.340;2022-12-29T13:13:59;99421.13;;;13.17;100.00
38038;BME280;23843;51.320;12.340;2022-12-29T13:16:32;99422.56;;;13.21;100.00
38038;BME280;23843;51.320;12.340;2022-12-29T13:19:04;99431.16;;;13.25;100.00
38038;BME280;23843;51.320;12.340;2022-12-29T13:21:44;99433.94;;;13.23;100.00
38038;BME280;23843;51.320;12.340;2022-12-29T13:24:16;99436.59;;;13.23;100.00
38038;BME280;23843;51.320;12.340;2022-12-29T13:26:48;99450.13;;;13.20;100.00
38038;BME280;23843;51.320;12.340;2022-12-29T13:29:18;99454.63;;;13.20;100.00
38038;BME280;23843;51.320;12.340;2022-12-29T13:31:53;99445.41;;;13.24;100.00
38038;BME280;23843;51.320;12.340;2022-12-29T13:34:30;99449.03;;;13.23;100.00
38038;BME280;23843;51.320;12.340;2022-12-29T13:37:03;99451.72;;;13.23;100.00
38038;BME280;23843;51.320;12.340;2022-12-29T13:39:33;99454.97;;;13.26;100.00
38038;BME280;23843;51.320;12.340;2022-12-29T13:42:02;99454.03;;;13.27;100.00
38038;BME280;23843;51.320;12.340;2022-12-29T13:44:31;99452.69;;;13.22;100.00
38038;BME280;23843;51.320;12.340;2022-12-29T13:47:02;99446.63;;;13.20;100.00
38038;BME280;23843;51.320;12.340;2022-12-29T13:49:28;99450.84;;;13.11;100.00
38038;BME280;23843;51.320;12.340;2022-12-29T13:51:56;99448.69;;;13.05;100.00
38038;BME280;23843;51.320;12.340;2022-12-29T13:54:29;99441.94;;;13.01;100.00
38038;BME280;23843;51.320;12.340;2022-12-29T13:57:07;99455.69;;;12.95;100.00
38038;BME280;23843;51.320;12.340;2022-12-29T13:59:42;99457.16;;;12.88;100.00
38038;BME280;23843;51.320;12.340;2022-12-29T14:02:19;99457.50;;;12.83;100.00
38038;BME280;23843;51.320;12.340;2022-12-29T14:04:57;99463.19;;;12.78;100.00
38038;BME280;23843;51.320;12.340;2022-12-29T14:07:23;99475.34;;;12.70;100.00
38038;BME280;23843;51.320;12.340;2022-12-29T14:09:50;99481.16;;;12.63;100.00
38038;BME280;23843;51.320;12.340;2022-12-29T14:12:32;99486.31;;;12.54;100.00
38038;BME280;23843;51.320;12.340;2022-12-29T14:15:12;99485.84;;;12.49;100.00
38038;BME280;23843;51.320;12.340;2022-12-29T14:17:40;99480.53;;;12.49;100.00
38038;BME280;23843;51.320;12.340;2022-12-29T14:20:17;99478.94;;;12.46;100.00
38038;BME280;23843;51.320;12.340;2022-12-29T14:22:56;99478.81;;;12.48;100.00
38038;BME280;23843;51.320;12.340;2022-12-29T14:25:53;99482.66;;;12.43;100.00
38038;BME280;23843;51.320;12.340;2022-12-29T14:28:24;99482.06;;;12.40;100.00
38038;BME280;23843;51.320;12.340;2022-12-29T14:30:52;99479.00;;;12.33;100.00
38038;BME280;23843;51.320;12.340;2022-12-29T14:33:18;99494.69;;;12.25;100.00
38038;BME280;23843;51.320;12.340;2022-12-29T14:35:46;99489.81;;;12.19;100.00
38038;BME280;23843;51.320;12.340;2022-12-29T14:38:17;99491.88;;;12.15;100.00
38038;BME280;23843;51.320;12.340;2022-12-29T14:40:44;99500.06;;;12.12;100.00
38038;BME280;23843;51.320;12.340;2022-12-29T14:43:12;99508.38;;;12.08;100.00
38038;BME280;23843;51.320;12.340;2022-12-29T14:45:41;99512.94;;;12.06;100.00
38038;BME280;23843;51.320;12.340;2022-12-29T14:48:33;99506.66;;;12.07;100.00
38038;BME280;23843;51.320;12.340;2022-12-29T14:51:00;99518.47;;;12.03;100.00
38038;BME280;23843;51.320;12.340;2022-12-29T14:53:42;99522.81;;;12.04;100.00
38038;BME280;23843;51.320;12.340;2022-12-29T14:56:09;99526.44;;;12.03;100.00
38038;BME280;23843;51.320;12.340;2022-12-29T14:58:43;99523.88;;;12.01;100.00
38038;BME280;23843;51.320;12.340;2022-12-29T15:01:20;99526.63;;;11.99;100.00
38038;BME280;23843;51.320;12.340;2022-12-29T15:03:49;99531.94;;;11.99;100.00
38038;BME280;23843;51.320;12.340;2022-12-29T15:06:17;99533.91;;;11.97;100.00
38038;BME280;23843;51.320;12.340;2022-12-29T15:08:46;99540.28;;;11.95;100.00
38038;BME280;23843;51.320;12.340;2022-12-29T15:11:17;99542.19;;;11.93;100.00
38038;BME280;23843;51.320;12.340;2022-12-29T15:13:44;99548.44;;;11.92;100.00
38038;BME280;23843;51.320;12.340;2022-12-29T15:16:24;99551.94;;;11.92;100.00
38038;BME280;23843;51.320;12.340;2022-12-29T15:18:50;99555.78;;;11.88;100.00
38038;BME280;23843;51.320;12.340;2022-12-29T15:21:16;99557.25;;;11.79;100.00
38038;BME280;23843;51.320;12.340;2022-12-29T15:23:43;99557.72;;;11.73;100.00
38038;BME280;23843;51.320;12.340;2022-12-29T15:26:10;99555.63;;;11.66;100.00
38038;BME280;23843;51.320;12.340;2022-12-29T15:28:40;99557.09;;;11.57;100.00
38038;BME280;23843;51.320;12.340;2022-12-29T15:31:11;99561.38;;;11.47;100.00
38038;BME280;23843;51.320;12.340;2022-12-29T15:33:40;99567.09;;;11.41;100.00
38038;BME280;23843;51.320;12.340;2022-12-29T15:36:11;99572.00;;;11.34;100.00
38038;BME280;23843;51.320;12.340;2022-12-29T15:38:37;99570.72;;;11.27;100.00
38038;BME280;23843;51.320;12.340;2022-12-29T15:41:05;99581.13;;;11.17;100.00
38038;BME280;23843;51.320;12.340;2022-12-29T15:43:44;99580.69;;;11.10;100.00
38038;BME280;23843;51.320;12.340;2022-12-29T15:46:13;99568.81;;;11.03;100.00
38038;BME280;23843;51.320;12.340;2022-12-29T15:48:40;99578.13;;;10.96;100.00
38038;BME280;23843;51.320;12.340;2022-12-29T15:51:15;99585.63;;;10.89;100.00
38038;BME280;23843;51.320;12.340;2022-12-29T15:53:42;99579.03;;;10.82;100.00
38038;BME280;23843;51.320;12.340;2022-12-29T15:56:14;99590.16;;;10.75;100.00
38038;BME280;23843;51.320;12.340;2022-12-29T15:58:42;99593.13;;;10.70;100.00
38038;BME280;23843;51.320;12.340;2022-12-29T16:01:17;99589.31;;;10.61;100.00
38038;BME280;23843;51.320;12.340;2022-12-29T16:03:44;99578.34;;;10.53;100.00
38038;BME280;23843;51.320;12.340;2022-12-29T16:06:28;99592.84;;;10.47;100.00
38038;BME280;23843;51.320;12.340;2022-12-29T16:08:56;99601.31;;;10.40;100.00
38038;BME280;23843;51.320;12.340;2022-12-29T16:11:25;99606.06;;;10.35;100.00
38038;BME280;23843;51.320;12.340;2022-12-29T16:13:52;99623.19;;;10.29;100.00
38038;BME280;23843;51.320;12.340;2022-12-29T16:16:20;99620.91;;;10.23;100.00
38038;BME280;23843;51.320;12.340;2022-12-29T16:18:49;99616.94;;;10.16;100.00
38038;BME280;23843;51.320;12.340;2022-12-29T16:21:19;99617.22;;;10.11;100.00
38038;BME280;23843;51.320;12.340;2022-12-29T16:23:50;99614.78;;;10.08;100.00
38038;BME280;23843;51.320;12.340;2022-12-29T16:26:20;99619.53;;;10.03;100.00
38038;BME280;23843;51.320;12.340;2022-12-29T16:28:48;99618.00;;;9.99;100.00
38038;BME280;23843;51.320;12.340;2022-12-29T16:31:21;99617.38;;;9.95;100.00
38038;BME280;23843;51.320;12.340;2022-12-29T16:33:49;99621.22;;;9.90;100.00
38038;BME280;23843;51.320;12.340;2022-12-29T16:36:26;99620.69;;;9.84;100.00
38038;BME280;23843;51.320;12.340;2022-12-29T16:39:10;99627.13;;;9.80;100.00
38038;BME280;23843;51.320;12.340;2022-12-29T16:41:40;99625.59;;;9.76;100.00
38038;BME280;23843;51.320;12.340;2022-12-29T16:44:12;99627.59;;;9.73;100.00
38038;BME280;23843;51.320;12.340;2022-12-29T16:46:44;99632.41;;;9.66;100.00
38038;BME280;23843;51.320;12.340;2022-12-29T16:49:22;99638.06;;;9.60;100.00
38038;BME280;23843;51.320;12.340;2022-12-29T16:51:48;99632.91;;;9.58;100.00
38038;BME280;23843;51.320;12.340;2022-12-29T16:54:19;99642.81;;;9.55;100.00
38038;BME280;23843;51.320;12.340;2022-12-29T16:56:47;99635.16;;;9.50;100.00
38038;BME280;23843;51.320;12.340;2022-12-29T16:59:24;99638.06;;;9.46;100.00
38038;BME280;23843;51.320;12.340;2022-12-29T17:01:51;99641.09;;;9.39;100.00
38038;BME280;23843;51.320;12.340;2022-12-29T17:04:16;99638.81;;;9.33;100.00
38038;BME280;23843;51.320;12.340;2022-12-29T17:06:43;99639.97;;;9.29;100.00
38038;BME280;23843;51.320;12.340;2022-12-29T17:09:19;99641.06;;;9.25;100.00
38038;BME280;23843;51.320;12.340;2022-12-29T17:11:47;99637.88;;;9.20;100.00
38038;BME280;23843;51.320;12.340;2022-12-29T17:14:19;99638.97;;;9.16;100.00
38038;BME280;23843;51.320;12.340;2022-12-29T17:16:46;99647.19;;;9.11;100.00
38038;BME280;23843;51.320;12.340;2022-12-29T17:19:15;99641.31;;;9.06;100.00
38038;BME280;23843;51.320;12.340;2022-12-29T17:21:43;99652.16;;;9.02;100.00
38038;BME280;23843;51.320;12.340;2022-12-29T17:24:13;99643.56;;;8.98;100.00
38038;BME280;23843;51.320;12.340;2022-12-29T17:26:40;99651.75;;;8.93;100.00
38038;BME280;23843;51.320;12.340;2022-12-29T17:29:06;99649.31;;;8.90;100.00
38038;BME280;23843;51.320;12.340;2022-12-29T17:31:31;99650.41;;;8.86;100.00
38038;BME280;23843;51.320;12.340;2022-12-29T17:33:57;99647.97;;;8.83;100.00
38038;BME280;23843;51.320;12.340;2022-12-29T17:36:22;99660.41;;;8.81;100.00
38038;BME280;23843;51.320;12.340;2022-12-29T17:38:49;99650.03;;;8.78;100.00
38038;BME280;23843;51.320;12.340;2022-12-29T17:41:14;99657.25;;;8.74;100.00
38038;BME280;23843;51.320;12.340;2022-12-29T17:43:40;99659.25;;;8.71;100.00
38038;BME280;23843;51.320;12.340;2022-12-29T17:46:06;99646.38;;;8.65;100.00
38038;BME280;23843;51.320;12.340;2022-12-29T17:48:31;99654.66;;;8.59;100.00
38038;BME280;23843;51.320;12.340;2022-12-29T17:50:57;99660.78;;;8.59;100.00
38038;BME280;23843;51.320;12.340;2022-12-29T17:53:25;99666.06;;;8.59;100.00
38038;BME280;23843;51.320;12.340;2022-12-29T17:55:52;99666.13;;;8.57;100.00
38038;BME280;23843;51.320;12.340;2022-12-29T17:58:18;99665.38;;;8.55;100.00
38038;BME280;23843;51.320;12.340;2022-12-29T18:00:45;99663.69;;;8.54;100.00
38038;BME280;23843;51.320;12.340;2022-12-29T18:03:13;99670.84;;;8.52;100.00
38038;BME280;23843;51.320;12.340;2022-12-29T18:05:39;99665.56;;;8.52;100.00
38038;BME280;23843;51.320;12.340;2022-12-29T18:08:04;99669.03;;;8.53;100.00
38038;BME280;23843;51.320;12.340;2022-12-29T18:10:30;99665.56;;;8.52;100.00
38038;BME280;23843;51.320;12.340;2022-12-29T18:12:58;99668.19;;;8.52;100.00
38038;BME280;23843;51.320;12.340;2022-12-29T18:15:26;99665.56;;;8.52;100.00
38038;BME280;23843;51.320;12.340;2022-12-29T18:17:54;99673.53;;;8.51;100.00
38038;BME280;23843;51.320;12.340;2022-12-29T18:20:22;99666.84;;;8.45;100.00
38038;BME280;23843;51.320;12.340;2022-12-29T18:22:48;99667.78;;;8.44;100.00
38038;BME280;23843;51.320;12.340;2022-12-29T18:25:21;99672.22;;;8.44;100.00
38038;BME280;23843;51.320;12.340;2022-12-29T18:27:48;99677.66;;;8.41;100.00
38038;BME280;23843;51.320;12.340;2022-12-29T18:30:16;99676.00;;;8.38;100.00